Time;durP1;ratioP1;P1;durP2;ratioP2;P2;SDS_P1;SDS_P2;PMS_P1;PMS_P2;Temp;Humidity;BMP_temperature;BMP_pressure;BME280_temperature;BME280_humidity;BME280_pressure;Samples;Min_cycle;Max_cycle;Signal;HPM_P1;HPM_P2
2023/04/09 04:30:14;;;;;;;10.25;5.30;;;10.70;64.20;;;;;;6064653;23;20080;-77
2023/04/09 04:32:39;;;;;;;8.75;5.25;;;10.60;64.10;;;;;;4972859;28;20051;-77
2023/04/09 04:35:05;;;;;;;12.63;6.57;;;10.70;63.80;;;;;;4957425;28;20038;-76
2023/04/09 04:37:31;;;;;;;9.75;5.65;;;10.70;64.00;;;;;;4959262;28;20066;-77
2023/04/09 04:39:56;;;;;;;12.32;6.07;;;10.70;63.90;;;;;;4971403;28;20483;-77
2023/04/09 04:42:22;;;;;;;9.65;5.50;;;10.60;64.10;;;;;;4957150;29;20027;-77
2023/04/09 04:44:47;;;;;;;9.43;6.25;;;10.60;64.10;;;;;;4956913;28;20167;-77
2023/04/09 04:47:13;;;;;;;14.02;6.00;;;10.60;64.10;;;;;;4957426;29;20043;-77
2023/04/09 04:49:39;;;;;;;11.00;6.32;;;10.60;64.20;;;;;;4956748;28;20031;-76
2023/04/09 04:52:05;;;;;;;10.00;5.28;;;10.40;64.60;;;;;;4955993;29;20032;-77
2023/04/09 04:54:30;;;;;;;10.48;6.20;;;10.40;64.80;;;;;;4957356;29;20082;-76
2023/04/09 04:56:56;;;;;;;10.27;6.18;;;10.40;65.30;;;;;;4956936;28;20028;-77
2023/04/09 04:59:22;;;;;;;17.15;7.45;;;10.40;64.60;;;;;;4957101;29;20031;-76
2023/04/09 05:01:47;;;;;;;11.93;7.18;;;10.30;65.40;;;;;;4947266;28;20038;-77
2023/04/09 05:04:13;;;;;;;10.90;6.72;;;10.30;65.90;;;;;;4956753;28;20039;-77
2023/04/09 05:06:39;;;;;;;12.23;6.38;;;10.20;66.30;;;;;;4976355;28;20371;-76
2023/04/09 05:09:04;;;;;;;11.80;7.18;;;10.20;66.20;;;;;;4976482;28;20066;-76
2023/04/09 05:11:30;;;;;;;11.90;6.45;;;10.20;66.20;;;;;;4976133;28;20035;-77
2023/04/09 05:13:55;;;;;;;14.73;7.28;;;10.20;66.50;;;;;;4962129;28;20049;-76
2023/04/09 05:16:21;;;;;;;15.73;6.88;;;10.20;66.50;;;;;;4961317;28;20070;-77
2023/04/09 05:18:47;;;;;;;13.35;7.38;;;10.10;66.60;;;;;;4943790;29;20450;-77
2023/04/09 05:21:13;;;;;;;14.30;7.40;;;10.10;66.90;;;;;;4979502;28;20019;-77
2023/04/09 05:23:38;;;;;;;16.02;7.75;;;10.10;67.00;;;;;;4960909;28;20065;-77
2023/04/09 05:26:04;;;;;;;13.02;7.70;;;10.00;67.00;;;;;;4960944;29;20126;-77
2023/04/09 05:28:30;;;;;;;10.60;6.65;;;10.00;67.00;;;;;;4960558;28;20093;-77
2023/04/09 05:30:56;;;;;;;15.85;7.25;;;10.00;67.00;;;;;;4959411;29;20530;-77
2023/04/09 05:33:21;;;;;;;13.75;6.93;;;10.00;67.20;;;;;;4963381;28;20030;-76
2023/04/09 05:35:47;;;;;;;15.02;7.68;;;10.10;67.00;;;;;;4968314;28;20035;-77
2023/04/09 05:38:12;;;;;;;15.70;8.63;;;10.10;66.80;;;;;;4978937;28;20078;-76
2023/04/09 05:40:39;;;;;;;10.50;6.78;;;10.20;66.60;;;;;;4958819;29;20031;-77
2023/04/09 05:43:05;;;;;;;15.27;8.52;;;10.20;66.50;;;;;;4960755;29;20407;-76
2023/04/09 05:45:30;;;;;;;12.68;6.75;;;10.20;66.50;;;;;;4960445;29;20033;-76
2023/04/09 05:47:56;;;;;;;15.32;6.78;;;10.20;66.70;;;;;;4960194;29;20118;-77
2023/04/09 05:50:22;;;;;;;12.45;7.72;;;10.20;66.50;;;;;;4960330;28;20447;-77
2023/04/09 05:52:47;;;;;;;17.02;7.95;;;10.10;66.80;;;;;;4960209;29;20035;-77
2023/04/09 05:55:13;;;;;;;15.23;7.35;;;10.00;67.20;;;;;;4975257;28;20055;-79
2023/04/09 05:57:39;;;;;;;12.43;6.80;;;10.10;67.30;;;;;;4948699;28;20043;-78
2023/04/09 06:00:07;;;;;;;13.93;8.18;;;10.10;67.40;;;;;;4968631;28;20049;-79
2023/04/09 06:02:32;;;;;;;14.93;6.78;;;10.10;67.50;;;;;;4978810;28;20050;-79
2023/04/09 06:04:58;;;;;;;14.18;7.53;;;10.10;67.80;;;;;;4977031;28;20089;-78
2023/04/09 06:07:23;;;;;;;16.05;8.15;;;9.90;68.10;;;;;;4971666;28;20027;-78
2023/04/09 06:09:49;;;;;;;13.10;7.07;;;10.00;68.00;;;;;;4979034;28;20025;-78
2023/04/09 06:12:15;;;;;;;12.00;7.13;;;10.00;67.90;;;;;;4979247;28;20479;-78
2023/04/09 06:14:41;;;;;;;14.68;7.53;;;10.10;67.90;;;;;;4961199;28;20118;-78
2023/04/09 06:17:06;;;;;;;14.63;8.02;;;10.10;67.80;;;;;;4978949;28;20017;-76
2023/04/09 06:19:32;;;;;;;12.48;7.80;;;10.20;67.50;;;;;;4979035;28;20091;-76
2023/04/09 06:21:58;;;;;;;17.38;7.85;;;10.10;67.50;;;;;;4961497;28;20395;-77
2023/04/09 06:24:23;;;;;;;13.25;6.93;;;10.20;67.50;;;;;;4957860;28;20135;-77
2023/04/09 06:26:49;;;;;;;15.35;7.97;;;10.10;67.70;;;;;;4979142;28;20491;-80
2023/04/09 06:29:15;;;;;;;13.35;7.57;;;10.10;68.00;;;;;;4978458;28;20034;-78
2023/04/09 06:31:40;;;;;;;14.20;7.55;;;10.20;67.90;;;;;;4977509;28;20137;-76
2023/04/09 06:34:06;;;;;;;13.73;7.72;;;10.20;68.00;;;;;;4975295;28;20033;-77
2023/04/09 06:36:33;;;;;;;14.07;7.07;;;10.20;68.10;;;;;;4978472;28;20062;-78
2023/04/09 06:38:59;;;;;;;13.68;8.10;;;10.20;68.00;;;;;;4971535;28;20047;-79
2023/04/09 06:41:27;;;;;;;12.65;6.95;;;10.20;68.00;;;;;;4978438;28;20479;-78
2023/04/09 06:43:53;;;;;;;15.18;7.50;;;10.20;68.10;;;;;;4960758;28;20037;-80
2023/04/09 06:46:20;;;;;;;12.80;8.05;;;10.30;68.00;;;;;;4973676;28;20447;-80
2023/04/09 06:48:46;;;;;;;12.93;7.18;;;10.30;68.00;;;;;;4960657;28;20033;-79
2023/04/09 06:51:11;;;;;;;14.48;7.40;;;10.30;68.00;;;;;;4966652;28;20039;-78
2023/04/09 06:53:38;;;;;;;17.90;8.75;;;10.30;68.40;;;;;;4959217;29;20034;-78
2023/04/09 06:56:04;;;;;;;17.27;7.60;;;10.30;67.90;;;;;;4971104;28;20112;-77
2023/04/09 06:58:29;;;;;;;14.65;7.47;;;10.30;68.30;;;;;;4959121;28;20027;-79
2023/04/09 07:00:55;;;;;;;16.02;7.93;;;10.50;67.90;;;;;;4976398;28;20039;-76
2023/04/09 07:03:21;;;;;;;20.42;8.30;;;10.80;67.10;;;;;;4958862;28;20041;-77
2023/04/09 07:05:47;;;;;;;14.98;7.75;;;10.80;66.80;;;;;;4972459;28;20043;-76
2023/04/09 07:08:13;;;;;;;21.67;10.40;;;10.70;67.30;;;;;;4957780;28;20502;-77
2023/04/09 07:10:39;;;;;;;18.23;9.15;;;10.60;67.40;;;;;;4974582;28;20058;-76
2023/04/09 07:13:05;;;;;;;14.38;8.77;;;10.70;67.50;;;;;;4973664;28;20031;-77
2023/04/09 07:15:31;;;;;;;16.63;9.40;;;10.90;67.20;;;;;;4953917;28;20545;-76
2023/04/09 07:17:57;;;;;;;16.65;8.68;;;11.10;66.30;;;;;;4971996;28;20022;-77
2023/04/09 07:20:22;;;;;;;17.05;8.48;;;11.40;65.60;;;;;;4968945;28;20636;-77
2023/04/09 07:22:48;;;;;;;15.13;8.43;;;11.80;65.20;;;;;;4970856;28;20019;-77
2023/04/09 07:25:15;;;;;;;14.98;8.68;;;12.60;62.30;;;;;;4951712;28;20037;-78
2023/04/09 07:27:41;;;;;;;13.48;7.88;;;13.20;60.20;;;;;;4952041;28;20023;-77
2023/04/09 07:30:07;;;;;;;13.10;8.55;;;13.70;58.70;;;;;;4976478;28;20038;-78
2023/04/09 07:32:33;;;;;;;11.52;7.05;;;14.00;57.90;;;;;;4972216;28;20129;-78
2023/04/09 07:34:59;;;;;;;15.10;9.38;;;14.80;56.10;;;;;;4973133;28;20059;-77
2023/04/09 07:37:25;;;;;;;13.10;7.97;;;14.80;55.10;;;;;;4953301;28;20078;-77
2023/04/09 07:39:52;;;;;;;12.55;7.88;;;16.50;52.60;;;;;;4974162;28;20461;-77
2023/04/09 07:42:17;;;;;;;11.15;6.35;;;18.50;46.90;;;;;;4971809;28;20034;-78
2023/04/09 07:44:43;;;;;;;11.30;7.13;;;20.00;43.20;;;;;;4974993;28;20487;-76
2023/04/09 07:47:10;;;;;;;11.30;7.38;;;20.40;40.80;;;;;;4975064;28;20046;-76
2023/04/09 07:49:36;;;;;;;12.80;8.27;;;21.20;40.00;;;;;;4971568;28;20061;-76
2023/04/09 07:52:03;;;;;;;10.68;7.45;;;21.50;38.80;;;;;;4974092;28;20041;-76
2023/04/09 07:54:30;;;;;;;13.68;8.25;;;23.00;37.50;;;;;;4954602;28;20038;-74
2023/04/09 07:56:56;;;;;;;12.07;8.10;;;23.40;35.90;;;;;;4957403;28;20439;-74
2023/04/09 07:59:22;;;;;;;11.63;7.72;;;23.50;35.40;;;;;;4958284;28;20080;-75
2023/04/09 08:01:48;;;;;;;10.48;8.23;;;23.90;35.20;;;;;;4973037;28;20034;-75
2023/04/09 08:04:14;;;;;;;10.88;6.90;;;23.90;34.00;;;;;;4975840;28;20025;-76
2023/04/09 08:06:40;;;;;;;9.80;7.65;;;24.70;35.00;;;;;;4955352;28;20023;-76
2023/04/09 08:09:06;;;;;;;10.88;7.65;;;25.20;32.50;;;;;;4973499;28;20058;-75
2023/04/09 08:11:32;;;;;;;10.75;7.30;;;25.80;31.70;;;;;;4975707;28;20027;-76
2023/04/09 08:14:00;;;;;;;9.18;7.15;;;26.80;31.80;;;;;;4966810;28;20042;-75
2023/04/09 08:16:25;;;;;;;9.45;8.50;;;26.70;30.50;;;;;;4958334;28;20564;-75
2023/04/09 08:18:52;;;;;;;10.52;7.90;;;26.10;30.60;;;;;;4958340;28;20026;-75
2023/04/09 08:21:18;;;;;;;9.52;7.30;;;26.80;30.50;;;;;;4971351;28;20034;-75
2023/04/09 08:23:43;;;;;;;9.52;7.38;;;27.40;29.50;;;;;;4972927;28;20463;-75
2023/04/09 08:26:09;;;;;;;10.98;8.38;;;27.20;30.00;;;;;;4968985;28;20023;-75
2023/04/09 08:28:35;;;;;;;10.90;8.30;;;26.70;30.40;;;;;;4953051;28;20402;-75
2023/04/09 08:31:00;;;;;;;9.27;7.07;;;26.40;31.00;;;;;;4964706;28;20062;-75
2023/04/09 08:33:26;;;;;;;8.95;7.30;;;26.80;30.80;;;;;;4974783;28;20104;-75
2023/04/09 08:35:52;;;;;;;9.38;7.30;;;27.30;30.00;;;;;;4974736;28;20082;-75
2023/04/09 08:38:18;;;;;;;9.15;8.20;;;27.90;29.50;;;;;;4973696;28;20035;-75
2023/04/09 08:40:44;;;;;;;8.40;7.10;;;27.90;29.30;;;;;;4976106;28;20027;-75
2023/04/09 08:43:14;;;;;;;8.25;7.35;;;27.60;29.60;;;;;;4974967;28;20046;-75
2023/04/09 08:45:40;;;;;;;8.63;6.50;;;28.30;29.70;;;;;;4972763;28;20023;-75
2023/04/09 08:48:09;;;;;;;10.73;7.53;;;28.40;29.00;;;;;;4967725;28;20035;-75
2023/04/09 08:50:35;;;;;;;9.77;7.90;;;27.40;29.40;;;;;;4970826;28;20026;-76
2023/04/09 08:53:09;;;;;;;8.77;6.30;;;26.70;30.70;;;;;;4957123;28;20042;-76
2023/04/09 08:55:36;;;;;;;7.43;6.55;;;26.40;31.70;;;;;;4979847;28;20073;-74
2023/04/09 08:58:09;;;;;;;9.18;7.03;;;26.40;31.30;;;;;;4975503;28;20392;-74
2023/04/09 09:00:35;;;;;;;8.25;6.00;;;25.90;32.10;;;;;;4970018;28;20043;-74
2023/04/09 09:03:02;;;;;;;9.15;7.30;;;26.00;32.70;;;;;;4958604;28;20376;-75
2023/04/09 09:05:40;;;;;;;10.02;6.85;;;26.40;31.40;;;;;;4975882;28;20051;-74
2023/04/09 09:08:10;;;;;;;9.02;6.25;;;26.00;32.10;;;;;;4975371;28;20043;-74
2023/04/09 09:10:43;;;;;;;8.50;6.13;;;26.10;32.20;;;;;;4969442;28;20510;-74
2023/04/09 09:13:21;;;;;;;9.13;6.85;;;26.80;32.70;;;;;;4975643;28;20030;-74
2023/04/09 09:15:49;;;;;;;7.68;6.15;;;26.50;31.10;;;;;;4966798;28;20035;-75
2023/04/09 09:18:17;;;;;;;8.63;6.35;;;26.70;31.40;;;;;;4970139;28;20035;-76
2023/04/09 09:20:42;;;;;;;8.38;6.45;;;26.90;31.50;;;;;;4972060;28;20561;-75
2023/04/09 09:23:08;;;;;;;8.43;6.40;;;26.50;31.50;;;;;;4975182;28;20614;-75
2023/04/09 09:25:38;;;;;;;7.15;6.00;;;26.90;31.20;;;;;;4969758;28;20054;-75
2023/04/09 09:28:11;;;;;;;6.38;5.35;;;27.00;30.90;;;;;;4972350;28;20050;-75
2023/04/09 09:30:39;;;;;;;8.35;5.68;;;27.30;31.30;;;;;;4973445;28;20043;-75
2023/04/09 09:33:11;;;;;;;7.70;5.28;;;26.80;31.00;;;;;;4975434;28;20037;-75
2023/04/09 09:35:53;;;;;;;7.15;5.25;;;26.80;31.70;;;;;;4975269;28;20532;-75
2023/04/09 09:38:19;;;;;;;8.13;5.72;;;26.50;31.00;;;;;;4974629;28;20034;-75
2023/04/09 09:40:46;;;;;;;7.57;5.75;;;26.30;31.40;;;;;;4973452;28;20082;-74
2023/04/09 09:43:13;;;;;;;7.22;5.35;;;25.40;33.00;;;;;;4973959;28;20114;-77
2023/04/09 09:45:40;;;;;;;7.93;5.85;;;25.50;33.90;;;;;;4974623;28;20019;-76
2023/04/09 09:48:06;;;;;;;8.48;5.70;;;26.30;33.00;;;;;;4974934;28;20043;-76
2023/04/09 09:50:34;;;;;;;7.85;5.50;;;27.20;32.70;;;;;;4957170;28;20513;-76
2023/04/09 09:53:07;;;;;;;6.88;5.65;;;27.20;31.00;;;;;;4974576;28;20042;-76
2023/04/09 09:55:37;;;;;;;6.30;5.32;;;27.70;30.60;;;;;;4973622;28;20058;-76
2023/04/09 09:58:11;;;;;;;8.68;5.05;;;27.40;30.90;;;;;;4971417;28;20121;-76
2023/04/09 10:00:39;;;;;;;6.60;5.28;;;27.90;31.10;;;;;;4978272;28;20470;-76
2023/04/09 10:03:18;;;;;;;6.70;5.47;;;28.10;31.60;;;;;;4975118;28;20098;-76
2023/04/09 10:05:44;;;;;;;6.53;4.72;;;27.20;30.50;;;;;;4976529;28;20038;-75
2023/04/09 10:08:11;;;;;;;6.18;5.32;;;26.90;31.20;;;;;;4977305;28;20031;-76
2023/04/09 10:10:41;;;;;;;6.93;5.50;;;26.90;32.60;;;;;;4967336;28;20494;-75
2023/04/09 10:13:13;;;;;;;7.28;5.22;;;26.80;32.30;;;;;;4976789;28;20050;-75
2023/04/09 10:15:41;;;;;;;6.25;5.30;;;26.40;31.90;;;;;;4957039;28;20107;-76
2023/04/09 10:18:07;;;;;;;6.33;5.40;;;25.20;34.20;;;;;;4977064;28;20070;-76
2023/04/09 10:20:40;;;;;;;5.88;4.30;;;25.10;34.60;;;;;;4972378;28;20058;-76
2023/04/09 10:23:15;;;;;;;7.63;4.90;;;25.10;34.30;;;;;;4973905;28;20034;-75
2023/04/09 10:25:41;;;;;;;6.25;4.35;;;24.20;34.40;;;;;;4975956;28;20027;-75
2023/04/09 10:28:16;;;;;;;6.25;4.05;;;23.00;35.90;;;;;;4974871;28;20035;-73
2023/04/09 10:30:42;;;;;;;8.73;4.60;;;22.30;37.70;;;;;;4975727;28;20388;-74
2023/04/09 10:33:13;;;;;;;5.82;3.47;;;21.90;39.50;;;;;;4977283;28;20062;-76
2023/04/09 10:35:39;;;;;;;6.55;4.22;;;21.80;40.40;;;;;;4973181;28;20450;-73
2023/04/09 10:38:09;;;;;;;4.75;3.58;;;21.10;40.60;;;;;;4977689;28;20042;-75
2023/04/09 10:40:38;;;;;;;;;;;20.80;41.00;;;;;;4978509;28;20034;-73
2023/04/09 10:43:04;;;;;;;;;;;20.70;42.40;;;;;;4967454;28;19914;-74
2023/04/09 10:45:41;;;;;;;5.55;3.53;;;20.60;42.80;;;;;;4967421;28;19924;-76
2023/04/09 10:48:12;;;;;;;4.93;3.22;;;20.70;42.50;;;;;;4977496;28;20069;-78
2023/04/09 10:50:38;;;;;;;6.38;3.15;;;20.50;41.80;;;;;;4957437;28;20031;-76
2023/04/09 10:53:04;;;;;;;6.25;3.90;;;20.50;41.60;;;;;;4969751;28;20442;-75
2023/04/09 10:55:37;;;;;;;5.07;3.30;;;20.50;42.70;;;;;;4977377;28;20040;-75
2023/04/09 10:58:10;;;;;;;4.88;3.63;;;20.30;43.70;;;;;;4972684;28;20019;-76
2023/04/09 11:00:38;;;;;;;4.38;2.95;;;20.30;42.10;;;;;;4961859;28;20034;-75
2023/04/09 11:03:27;;;;;;;4.85;3.20;;;19.80;40.40;;;;;;4977630;28;20355;-77
2023/04/09 11:06:04;;;;;;;7.68;3.70;;;19.30;42.40;;;;;;4977978;28;20588;-77
2023/04/09 11:08:31;;;;;;;5.20;3.53;;;19.40;44.30;;;;;;4957054;28;20035;-75
2023/04/09 11:10:58;;;;;;;7.70;3.95;;;19.30;43.70;;;;;;4965584;28;20022;-76
2023/04/09 11:13:24;;;;;;;5.97;4.47;;;19.60;45.00;;;;;;4969534;28;20031;-77
2023/04/09 11:15:50;;;;;;;7.68;3.88;;;19.50;44.70;;;;;;4975746;28;20089;-75
2023/04/09 11:18:21;;;;;;;9.35;4.00;;;19.70;44.30;;;;;;4959696;28;20463;-77
2023/04/09 11:20:47;;;;;;;6.88;3.75;;;19.70;44.70;;;;;;4958100;29;20507;-75
2023/04/09 11:23:14;;;;;;;4.70;2.85;;;19.80;44.60;;;;;;4952893;28;20034;-75
2023/04/09 11:25:40;;;;;;;6.18;3.67;;;19.90;45.10;;;;;;4971812;28;20027;-76
2023/04/09 11:28:07;;;;;;;8.35;3.78;;;19.90;45.30;;;;;;4968575;28;20034;-75
2023/04/09 11:30:33;;;;;;;7.45;3.47;;;19.90;46.30;;;;;;4960263;28;20066;-75
2023/04/09 11:33:00;;;;;;;5.57;3.40;;;19.90;45.00;;;;;;4972346;28;20846;-74
2023/04/09 11:35:25;;;;;;;6.15;2.95;;;19.70;44.50;;;;;;4977189;28;20518;-74
2023/04/09 11:37:51;;;;;;;6.40;3.58;;;19.70;45.20;;;;;;4965236;28;20085;-75
2023/04/09 11:40:21;;;;;;;4.13;2.92;;;19.70;45.30;;;;;;4975153;28;20035;-74
2023/04/09 11:42:52;;;;;;;6.22;3.70;;;19.80;44.10;;;;;;4958845;28;20057;-76
2023/04/09 11:45:19;;;;;;;4.55;3.05;;;19.80;44.30;;;;;;4962461;28;20031;-75
2023/04/09 11:47:46;;;;;;;4.55;2.95;;;19.70;44.60;;;;;;4959527;28;20454;-74
2023/04/09 11:50:13;;;;;;;6.22;3.20;;;19.70;43.80;;;;;;4961390;28;20042;-75
2023/04/09 11:52:40;;;;;;;5.05;3.28;;;19.50;44.50;;;;;;4959524;28;20494;-77
2023/04/09 11:55:07;;;;;;;6.00;3.40;;;19.20;44.80;;;;;;4960119;28;20035;-77
2023/04/09 11:57:40;;;;;;;6.38;3.35;;;19.30;44.90;;;;;;4976468;28;20502;-78
2023/04/09 12:00:13;;;;;;;6.05;2.20;;;19.30;44.30;;;;;;4962453;28;20034;-80
2023/04/09 12:02:46;;;;;;;4.75;2.55;;;19.40;43.30;;;;;;4976217;28;20026;-84
2023/04/09 12:05:32;;;;;;;3.88;2.30;;;19.40;43.20;;;;;;4974896;28;20031;-84
2023/04/09 12:08:03;;;;;;;4.50;2.55;;;19.50;42.20;;;;;;4954774;28;20031;-83
2023/04/09 12:10:31;;;;;;;4.22;2.60;;;19.40;42.50;;;;;;4956000;28;20062;-84
2023/04/09 12:13:02;;;;;;;4.32;2.28;;;19.30;42.60;;;;;;4957240;28;20041;-85
2023/04/09 12:15:34;;;;;;;4.75;2.67;;;19.30;42.90;;;;;;4956243;28;20046;-85
2023/04/09 12:18:00;;;;;;;3.38;2.20;;;19.20;43.20;;;;;;4968975;28;20022;-85
2023/04/09 12:20:29;;;;;;;3.05;2.13;;;19.50;44.30;;;;;;4973143;28;20103;-84
2023/04/09 12:22:56;;;;;;;5.32;2.78;;;19.60;42.30;;;;;;4955342;28;20031;-84
2023/04/09 12:25:21;;;;;;;4.22;2.20;;;19.60;43.10;;;;;;4967364;28;20031;-85
2023/04/09 12:27:47;;;;;;;5.63;2.17;;;19.60;44.40;;;;;;4948774;28;20082;-84
2023/04/09 12:30:13;;;;;;;6.55;2.55;;;19.80;43.20;;;;;;4962997;28;20027;-85
2023/04/09 12:32:38;;;;;;;4.10;2.70;;;19.50;42.40;;;;;;4973001;28;20061;-84
2023/04/09 12:35:04;;;;;;;4.72;2.58;;;19.40;43.50;;;;;;4960400;28;20506;-84
2023/04/09 12:37:30;;;;;;;4.68;2.70;;;19.30;44.70;;;;;;4974576;28;20026;-84
2023/04/09 12:39:56;;;;;;;3.65;2.47;;;19.50;45.50;;;;;;4975143;28;20031;-84
2023/04/09 12:42:21;;;;;;;4.35;2.20;;;19.80;45.00;;;;;;4951560;28;20029;-82
2023/04/09 12:44:47;;;;;;;4.25;2.20;;;19.90;43.90;;;;;;4977121;28;20085;-83
2023/04/09 12:47:12;;;;;;;4.20;2.10;;;19.70;42.60;;;;;;4995398;28;20022;-85
2023/04/09 12:49:38;;;;;;;4.00;1.88;;;19.60;42.80;;;;;;4975790;28;20479;-84
2023/04/09 12:52:04;;;;;;;3.25;2.10;;;19.80;43.50;;;;;;4964628;28;20439;-82
2023/04/09 12:54:30;;;;;;;3.13;2.00;;;19.80;42.90;;;;;;4970431;28;20450;-86
2023/04/09 12:56:56;;;;;;;2.35;1.70;;;19.80;42.80;;;;;;4958610;28;20228;-84
2023/04/09 12:59:21;;;;;;;3.78;2.10;;;19.70;42.20;;;;;;4969618;28;20066;-85
2023/04/09 13:01:47;;;;;;;3.88;2.30;;;19.70;40.30;;;;;;4968237;28;21014;-85
2023/04/09 13:04:13;;;;;;;3.30;1.92;;;19.80;40.60;;;;;;4972719;28;20034;-89
2023/04/09 13:06:38;;;;;;;2.13;1.42;;;19.80;40.50;;;;;;4972471;28;20057;-87
2023/04/09 13:09:04;;;;;;;3.10;1.48;;;19.80;40.30;;;;;;4953034;28;20045;-89
2023/04/09 13:11:29;;;;;;;4.90;2.00;;;20.20;40.90;;;;;;4963974;28;20364;-89
2023/04/09 13:13:55;;;;;;;2.38;1.67;;;20.30;41.60;;;;;;4973016;28;20526;-87
2023/04/09 13:16:21;;;;;;;2.47;1.63;;;20.30;39.80;;;;;;4953594;29;20036;-88
2023/04/09 13:18:46;;;;;;;3.55;2.08;;;20.30;40.40;;;;;;4966680;28;20030;-88
2023/04/09 13:21:17;;;;;;;3.63;2.00;;;20.30;40.00;;;;;;4954025;29;20462;-88
2023/04/09 13:23:43;;;;;;;2.47;1.63;;;20.30;41.70;;;;;;4957971;28;20091;-87
2023/04/09 13:26:09;;;;;;;2.67;1.67;;;20.60;43.20;;;;;;4958283;28;20126;-87
2023/04/09 13:28:35;;;;;;;4.00;1.75;;;20.40;42.50;;;;;;4974235;28;20050;-88
2023/04/09 13:31:01;;;;;;;3.50;2.00;;;20.40;41.10;;;;;;4975588;28;20066;-88
2023/04/09 13:33:27;;;;;;;3.67;2.30;;;20.60;40.60;;;;;;4965068;28;20113;-88
2023/04/09 13:35:53;;;;;;;3.35;2.00;;;20.60;41.20;;;;;;4962205;28;20069;-86
2023/04/09 13:38:18;;;;;;;3.72;2.53;;;20.80;42.30;;;;;;4969907;28;20074;-87
2023/04/09 13:40:44;;;;;;;3.03;2.15;;;20.80;41.50;;;;;;4978851;28;20026;-86
2023/04/09 13:43:10;;;;;;;3.03;2.03;;;20.70;42.70;;;;;;4962053;28;20051;-87
2023/04/09 13:45:36;;;;;;;3.08;2.15;;;20.80;42.10;;;;;;4957804;29;20027;-86
2023/04/09 13:48:01;;;;;;;3.33;2.03;;;20.30;41.70;;;;;;4961274;28;20207;-87
2023/04/09 13:50:27;;;;;;;2.75;2.00;;;20.50;43.10;;;;;;4961972;28;20042;-86
2023/04/09 13:52:53;;;;;;;4.00;2.70;;;20.20;43.00;;;;;;4958882;28;20035;-86
2023/04/09 13:55:18;;;;;;;4.22;2.50;;;20.10;43.30;;;;;;4963189;28;20129;-85
2023/04/09 13:57:44;;;;;;;2.70;2.38;;;20.10;43.70;;;;;;4978743;28;20042;-87
2023/04/09 14:00:10;;;;;;;4.20;2.67;;;20.20;43.90;;;;;;4978876;28;20023;-87
2023/04/09 14:02:36;;;;;;;3.47;2.42;;;20.10;43.30;;;;;;4958290;28;20038;-86
2023/04/09 14:05:02;;;;;;;3.10;1.65;;;20.30;43.50;;;;;;4961682;28;20561;-87
2023/04/09 14:07:28;;;;;;;3.05;2.40;;;20.60;44.10;;;;;;4961872;28;20023;-86
2023/04/09 14:09:54;;;;;;;4.38;2.10;;;20.70;43.50;;;;;;4977432;28;20042;-86
2023/04/09 14:12:20;;;;;;;3.08;1.98;;;20.40;43.00;;;;;;4961359;28;20023;-86
2023/04/09 14:14:45;;;;;;;3.30;1.85;;;20.70;43.80;;;;;;4972590;28;20121;-87
2023/04/09 14:17:11;;;;;;;3.83;2.08;;;20.80;43.30;;;;;;4967358;28;20124;-87
2023/04/09 14:19:37;;;;;;;2.33;1.63;;;20.70;41.40;;;;;;4961082;28;20121;-86
2023/04/09 14:22:06;;;;;;;3.53;2.08;;;20.30;42.00;;;;;;4961551;28;20062;-87
2023/04/09 14:24:38;;;;;;;2.08;1.45;;;20.40;41.90;;;;;;4977061;28;20386;-87
2023/04/09 14:27:04;;;;;;;3.38;1.63;;;20.50;40.90;;;;;;4942006;29;20452;-86
2023/04/09 14:29:30;;;;;;;3.50;1.85;;;20.60;39.60;;;;;;4969355;28;20038;-86
2023/04/09 14:31:56;;;;;;;3.13;1.40;;;20.70;39.90;;;;;;4978226;28;20062;-87
2023/04/09 14:34:22;;;;;;;2.28;1.40;;;20.30;39.60;;;;;;4962163;28;20034;-86
2023/04/09 14:36:47;;;;;;;1.85;1.20;;;20.30;38.20;;;;;;4960829;28;20034;-86
2023/04/09 14:39:13;;;;;;;1.80;1.00;;;20.40;37.80;;;;;;4966247;28;20034;-86
2023/04/09 14:41:40;;;;;;;2.85;0.93;;;20.30;35.10;;;;;;4978442;28;20027;-86
2023/04/09 14:44:05;;;;;;;1.30;1.00;;;20.40;36.10;;;;;;4978133;28;20039;-87
2023/04/09 14:46:31;;;;;;;1.50;1.02;;;20.50;36.00;;;;;;4964564;28;20038;-86
2023/04/09 14:48:57;;;;;;;1.88;1.17;;;20.70;37.00;;;;;;4964659;28;20018;-86
2023/04/09 14:51:22;;;;;;;1.75;1.10;;;20.70;36.20;;;;;;4977678;28;20042;-84
2023/04/09 14:53:48;;;;;;;1.23;0.88;;;20.70;36.80;;;;;;4962118;28;20023;-84
2023/04/09 14:56:13;;;;;;;4.47;1.75;;;20.70;37.10;;;;;;4966778;28;20042;-85
2023/04/09 14:58:39;;;;;;;2.17;1.42;;;20.70;37.90;;;;;;4971278;28;20411;-85
2023/04/09 15:01:05;;;;;;;2.53;1.40;;;20.80;38.10;;;;;;4960071;28;20042;-85
2023/04/09 15:03:30;;;;;;;2.13;0.90;;;20.80;37.80;;;;;;4960270;28;20578;-84
2023/04/09 15:05:57;;;;;;;3.90;1.50;;;20.80;38.10;;;;;;4976833;28;20066;-85
2023/04/09 15:08:23;;;;;;;2.50;1.00;;;20.80;39.10;;;;;;4959943;28;20457;-86
2023/04/09 15:10:50;;;;;;;3.30;1.60;;;20.80;37.10;;;;;;4976982;28;20031;-85
2023/04/09 15:13:15;;;;;;;2.97;1.13;;;20.80;38.30;;;;;;4959393;28;20058;-85
2023/04/09 15:15:42;;;;;;;1.83;1.00;;;20.70;38.90;;;;;;4960543;28;20069;-85
2023/04/09 15:18:09;;;;;;;1.95;0.93;;;20.60;37.60;;;;;;4968480;28;20046;-85
2023/04/09 15:20:39;;;;;;;5.20;1.50;;;20.50;38.70;;;;;;4956728;28;20038;-84
2023/04/09 15:23:05;;;;;;;2.05;1.30;;;20.60;38.40;;;;;;4951796;28;20049;-86
2023/04/09 15:25:31;;;;;;;1.83;0.98;;;20.50;38.30;;;;;;4977447;28;20034;-75
2023/04/09 15:27:57;;;;;;;2.70;1.58;;;20.60;39.50;;;;;;4953643;28;20407;-81
2023/04/09 15:30:23;;;;;;;2.40;1.10;;;20.30;39.20;;;;;;4975359;28;20545;-89
2023/04/09 15:32:49;;;;;;;1.73;1.17;;;20.20;39.00;;;;;;4977499;28;20023;-81
2023/04/09 15:35:19;;;;;;;1.98;1.20;;;20.30;40.60;;;;;;4975699;28;20078;-81
2023/04/09 15:37:45;;;;;;;4.32;1.40;;;20.40;40.00;;;;;;4958603;29;20021;-78
2023/04/09 15:40:11;;;;;;;1.65;1.38;;;20.30;39.70;;;;;;4955129;28;20118;-80
2023/04/09 15:42:36;;;;;;;1.98;1.20;;;20.30;40.60;;;;;;4972623;28;20027;-85
2023/04/09 15:45:02;;;;;;;1.40;1.05;;;20.40;40.90;;;;;;4953137;28;20041;-83
2023/04/09 15:47:28;;;;;;;1.92;0.98;;;20.30;40.50;;;;;;4977416;28;20029;-84
2023/04/09 15:49:54;;;;;;;1.73;1.10;;;20.40;41.40;;;;;;4977731;28;20034;-86
2023/04/09 15:52:20;;;;;;;1.63;0.93;;;20.50;41.10;;;;;;4959348;28;20023;-82
2023/04/09 15:54:45;;;;;;;1.70;1.00;;;20.60;41.40;;;;;;4976240;28;20571;-80
2023/04/09 15:57:12;;;;;;;1.65;1.20;;;20.30;41.10;;;;;;4976701;28;20033;-83
2023/04/09 15:59:38;;;;;;;3.63;1.23;;;20.20;41.20;;;;;;4977054;28;20596;-83
2023/04/09 16:02:04;;;;;;;2.92;1.20;;;20.30;41.60;;;;;;4963397;28;20101;-84
2023/04/09 16:04:29;;;;;;;2.00;1.15;;;20.30;41.70;;;;;;4975082;28;20034;-84
2023/04/09 16:06:55;;;;;;;1.70;1.30;;;20.20;41.30;;;;;;4950483;29;20391;-84
2023/04/09 16:09:21;;;;;;;2.95;1.27;;;20.20;42.00;;;;;;4963110;28;20023;-85
2023/04/09 16:11:47;;;;;;;2.97;1.30;;;20.30;41.10;;;;;;4976848;28;20147;-84
2023/04/09 16:14:12;;;;;;;1.92;1.30;;;20.30;41.20;;;;;;4965083;28;20537;-83
2023/04/09 16:16:38;;;;;;;2.35;1.33;;;20.30;41.30;;;;;;4975939;28;20105;-83
2023/04/09 16:19:04;;;;;;;2.72;1.40;;;20.30;41.30;;;;;;4976342;28;20093;-84
2023/04/09 16:21:29;;;;;;;2.70;1.70;;;20.30;41.60;;;;;;4957495;28;20087;-84
2023/04/09 16:23:55;;;;;;;3.13;1.58;;;20.40;42.90;;;;;;4957399;28;20029;-84
2023/04/09 16:26:21;;;;;;;2.85;1.83;;;20.30;42.50;;;;;;4976622;28;20045;-85
2023/04/09 16:28:47;;;;;;;2.20;1.10;;;20.20;42.10;;;;;;4957824;28;20039;-85
2023/04/09 16:31:13;;;;;;;4.38;1.67;;;20.30;43.40;;;;;;4976269;28;20477;-85
2023/04/09 16:33:39;;;;;;;2.38;1.33;;;20.30;43.20;;;;;;4960341;28;20031;-84
2023/04/09 16:36:05;;;;;;;3.42;1.63;;;20.30;42.90;;;;;;4974593;28;20039;-85
2023/04/09 16:38:30;;;;;;;1.80;1.15;;;20.30;43.00;;;;;;4953477;29;20028;-84
2023/04/09 16:40:56;;;;;;;3.55;1.52;;;20.30;43.60;;;;;;4950888;28;20035;-84
2023/04/09 16:43:21;;;;;;;2.15;1.60;;;20.30;43.60;;;;;;4962387;28;20034;-85
2023/04/09 16:45:47;;;;;;;2.00;1.33;;;20.20;43.20;;;;;;4972560;28;20035;-84
2023/04/09 16:48:13;;;;;;;2.38;1.17;;;20.10;43.70;;;;;;4955839;28;20029;-83
2023/04/09 16:50:39;;;;;;;2.03;1.27;;;20.20;44.20;;;;;;4954906;28;20402;-84
2023/04/09 16:53:04;;;;;;;3.55;1.40;;;20.20;44.40;;;;;;4967616;28;20038;-83
2023/04/09 16:55:30;;;;;;;2.00;1.20;;;20.00;43.30;;;;;;4973465;28;20034;-83
2023/04/09 16:57:56;;;;;;;3.53;1.63;;;20.00;44.10;;;;;;4955500;28;20045;-83
2023/04/09 17:00:22;;;;;;;2.72;1.40;;;20.00;43.70;;;;;;4952486;28;20027;-83
2023/04/09 17:02:47;;;;;;;3.10;1.65;;;20.10;44.30;;;;;;4967423;28;20665;-85
2023/04/09 17:05:14;;;;;;;2.33;1.60;;;19.90;44.40;;;;;;4964907;28;20031;-83
2023/04/09 17:07:40;;;;;;;4.70;1.70;;;19.90;44.10;;;;;;4970778;28;20026;-82
2023/04/09 17:10:06;;;;;;;2.47;1.30;;;19.90;44.20;;;;;;4961464;28;20035;-84
2023/04/09 17:12:32;;;;;;;4.65;1.90;;;20.00;44.20;;;;;;4966952;28;20145;-82